createdAt,value
2023-02-20T19:33:05.007Z,71.46
2023-02-20T19:35:31.503Z,71.78
2023-02-20T19:37:57.984Z,72.16
2023-02-20T19:40:24.414Z,72.13
2023-02-20T19:42:51.027Z,72.28
2023-02-20T19:45:17.479Z,72.18
2023-02-20T19:47:44.052Z,71.16
2023-02-20T19:50:11.133Z,70.96
2023-02-20T19:52:37.618Z,71.56
2023-02-20T19:55:04.420Z,71.88
2023-02-20T19:57:30.864Z,72.94
2023-02-20T19:59:57.346Z,73.05
2023-02-20T20:02:25.572Z,72.58
2023-02-20T20:04:52.261Z,72.89
2023-02-20T20:07:18.754Z,73.65
2023-02-20T20:09:46.083Z,73.62
2023-02-20T20:12:31.089Z,73.84
2023-02-20T20:14:57.518Z,73.62
2023-02-20T20:17:24.610Z,73.16
2023-02-20T20:20:00.615Z,73.14
2023-02-20T20:22:30.954Z,72.99
2023-02-20T20:24:58.136Z,74.11
2023-02-20T20:27:24.695Z,74.04
2023-02-20T20:29:51.597Z,74.40
2023-02-20T20:32:19.831Z,75.30
2023-02-20T20:34:53.170Z,74.36
2023-02-20T20:37:24.032Z,74.87
2023-02-20T20:39:54.856Z,74.70
2023-02-20T20:42:23.720Z,75.12
2023-02-20T20:44:59.269Z,75.44
2023-02-20T20:47:28.203Z,75.53
2023-02-20T20:49:55.305Z,75.99
2023-02-20T20:52:26.614Z,75.38
2023-02-20T20:54:55.441Z,75.38
2023-02-20T20:57:25.280Z,75.75
2023-02-20T20:59:52.567Z,75.74
2023-02-20T21:02:20.527Z,76.23
2023-02-20T21:04:50.986Z,76.11
2023-02-20T21:07:18.729Z,75.00
2023-02-20T21:09:45.388Z,75.37
2023-02-20T21:12:13.542Z,76.39
2023-02-20T21:14:41.472Z,75.63
2023-02-20T21:17:10.134Z,76.17
2023-02-20T21:19:36.668Z,76.60
2023-02-20T21:22:03.451Z,75.95
2023-02-20T21:24:29.982Z,75.82
2023-02-20T21:26:56.482Z,76.37
2023-02-20T21:29:23.001Z,76.48
2023-02-20T21:31:49.541Z,76.10
2023-02-20T21:34:16.423Z,76.62
2023-02-20T21:36:43.946Z,76.60
2023-02-20T21:39:10.656Z,76.16
2023-02-20T21:41:55.731Z,76.79
2023-02-20T21:44:27.698Z,77.12
2023-02-20T21:47:00.328Z,77.19
2023-02-20T21:49:28.682Z,77.18
2023-02-20T21:51:56.262Z,77.29
2023-02-20T21:54:26.762Z,78.32
2023-02-20T21:56:53.679Z,78.38
2023-02-20T21:59:20.631Z,77.40
2023-02-20T22:01:47.451Z,77.92
2023-02-20T22:04:14.813Z,78.63
2023-02-20T22:06:42.050Z,78.18
2023-02-20T22:09:28.468Z,78.07
2023-02-20T22:12:13.447Z,77.71
2023-02-20T22:14:58.545Z,78.37
2023-02-20T22:17:44.485Z,78.01
2023-02-20T22:20:32.397Z,79.31
2023-02-20T22:23:17.596Z,77.47
2023-02-20T22:26:02.432Z,78.45
2023-02-20T22:28:47.575Z,78.69
2023-02-20T22:31:32.853Z,78.19
2023-02-20T22:34:17.717Z,79.36
2023-02-20T22:37:02.565Z,79.30
2023-02-20T22:39:47.774Z,78.88
2023-02-20T22:42:35.156Z,79.94
2023-02-20T22:45:20.986Z,79.44
2023-02-20T22:48:05.946Z,79.39
2023-02-20T22:50:51.093Z,79.10
2023-02-20T22:53:36.336Z,78.74
2023-02-20T22:56:21.428Z,79.89
2023-02-20T22:59:06.539Z,80.04
2023-02-20T23:01:51.676Z,80.07
2023-02-20T23:04:36.660Z,80.67
2023-02-20T23:07:21.586Z,80.88
2023-02-20T23:10:06.537Z,79.96
2023-02-20T23:12:51.599Z,79.81
2023-02-20T23:15:36.734Z,79.90
2023-02-20T23:18:21.825Z,79.27
2023-02-20T23:21:07.050Z,78.98
2023-02-20T23:23:52.107Z,79.25
2023-02-20T23:26:37.125Z,80.29
2023-02-20T23:29:22.198Z,78.01
2023-02-20T23:32:07.545Z,77.87
2023-02-20T23:34:52.466Z,77.83
2023-02-20T23:37:37.435Z,78.24
2023-02-20T23:40:30.930Z,78.17
2023-02-20T23:43:21.787Z,78.24
2023-02-20T23:46:06.963Z,78.08
2023-02-20T23:48:52.334Z,78.21
2023-02-20T23:51:37.443Z,78.07
2023-02-20T23:54:22.908Z,78.65
2023-02-20T23:57:08.075Z,78.94
2023-02-20T23:59:53.299Z,78.75
